Time;durP1;ratioP1;P1;durP2;ratioP2;P2;SDS_P1;SDS_P2;PMS_P1;PMS_P2;Temp;Humidity;BMP_temperature;BMP_pressure;BME280_temperature;BME280_humidity;BME280_pressure;Samples;Min_cycle;Max_cycle;Signal;HPM_P1;HPM_P2
2022/03/04 00:02:10;745162.00;2.48;1285.65;0.00;0.00;0.62;;;;;9.70;1.00;;;;;;2263345;61;1428;-86
2022/03/04 00:04:45;856341.00;2.85;1479.57;56711.00;0.19;98.79;;;;;9.60;1.00;;;;;;2263232;61;1433;-86
2022/03/04 00:07:28;126043344.00;420.14;81128616.00;70156.00;0.23;122.03;;;;;9.40;1.00;;;;;;2263522;61;1539;-86
2022/03/04 00:09:59;784879.00;2.62;1354.77;0.00;0.00;0.62;;;;;9.80;1.00;;;;;;2263083;61;1477;-87
2022/03/04 00:15:17;592298.00;1.97;1020.92;0.00;0.00;0.62;;;;;10.00;1.00;;;;;;2262409;61;1992;-86
2022/03/04 00:18:01;804205.00;2.68;1388.46;34865.00;0.12;61.00;;;;;9.90;1.00;;;;;;2263089;61;1556;-86
2022/03/04 00:20:29;773541.00;2.58;1335.02;98808.00;0.33;171.51;;;;;9.80;1.00;;;;;;2263181;61;1756;-86
2022/03/04 00:22:57;1235251.00;4.12;2154.09;86716.00;0.29;150.64;;;;;9.30;1.00;;;;;;2262443;61;1741;-86
2022/03/04 00:25:27;1027253.00;3.42;1780.80;97309.00;0.32;168.93;;;;;9.40;1.00;;;;;;2263031;61;1462;-86
2022/03/04 00:27:54;1366140.00;4.55;2393.67;134693.00;0.45;233.42;;;;;9.30;1.00;;;;;;2262869;61;1497;-86
2022/03/04 00:30:24;862186.00;2.87;1489.80;71365.00;0.24;124.12;;;;;9.40;1.00;;;;;;2262500;61;1150;-86
2022/03/04 00:32:57;985483.00;3.28;1706.78;103766.00;0.35;180.07;;;;;9.20;1.00;;;;;;2262584;61;1425;-85
2022/03/04 00:35:31;1177849.00;3.93;2050.22;134572.00;0.45;233.21;;;;;9.10;1.00;;;;;;2262042;61;1943;-86
2022/03/04 00:40:45;1257126.00;4.19;2193.85;37274.00;0.12;65.17;;;;;9.40;1.00;;;;;;2262190;61;1424;-86
2022/03/04 00:43:12;1487723.00;4.96;2620.04;10804.00;0.04;19.34;;;;;9.10;1.00;;;;;;2262166;61;1359;-85
2022/03/04 00:45:44;1510637.00;5.04;2663.15;34194.00;0.11;59.84;;;;;8.80;1.00;;;;;;2262310;61;1439;-85
2022/03/04 00:48:16;935255.00;3.12;1618.13;1893.00;0.01;3.90;;;;;8.60;1.00;;;;;;2261783;61;1760;-85
2022/03/04 00:50:47;715240.00;2.38;1233.68;0.00;0.00;0.62;;;;;8.70;1.00;;;;;;2261627;61;1630;-85
2022/03/04 00:53:26;881809.00;2.94;1524.19;0.00;0.00;0.62;;;;;8.60;1.00;;;;;;2261959;61;1438;-85
2022/03/04 00:56:05;831915.00;2.77;1436.84;0.00;0.00;0.62;;;;;8.50;1.00;;;;;;2261771;61;2014;-86
2022/03/04 00:58:38;758706.00;2.53;1309.20;0.00;0.00;0.62;;;;;8.50;1.00;;;;;;2262548;61;1750;-85
2022/03/04 01:01:06;737977.00;2.46;1273.16;0.00;0.00;0.62;;;;;8.10;1.00;;;;;;2262113;61;1470;-85
2022/03/04 01:03:45;952800.00;3.18;1649.05;9851.00;0.03;17.69;;;;;8.20;1.00;;;;;;2261964;61;1562;-85
2022/03/04 01:08:58;748625.00;2.50;1291.67;0.00;0.00;0.62;;;;;7.30;1.00;;;;;;2262293;61;1703;-85
2022/03/04 01:11:37;850180.00;2.83;1468.78;0.00;0.00;0.62;;;;;7.90;1.00;;;;;;2262529;61;1628;-86
2022/03/04 01:14:10;896256.00;2.99;1549.55;0.00;0.00;0.62;;;;;8.40;1.00;;;;;;2262398;61;1560;-85
2022/03/04 01:16:39;577038.00;1.92;994.59;0.00;0.00;0.62;;;;;8.50;1.00;;;;;;2262345;61;2021;-86
2022/03/04 01:19:20;821352.00;2.74;1418.39;0.00;0.00;0.62;;;;;8.60;1.00;;;;;;2261830;61;1601;-86
2022/03/04 01:24:30;1511052.00;5.04;2663.93;97797.00;0.33;169.77;;;;;9.10;1.00;;;;;;2272433;56;1902;-86
2022/03/04 01:27:01;929929.00;3.10;1608.75;89371.00;0.30;155.22;;;;;9.20;1.00;;;;;;2265852;61;1479;-85
2022/03/04 01:29:39;966779.00;3.22;1673.72;87037.00;0.29;151.19;;;;;9.20;1.00;;;;;;2265970;61;1648;-86
2022/03/04 01:32:09;1591125.00;5.30;2815.79;134773.00;0.45;233.56;;;;;9.30;1.00;;;;;;2266498;61;1582;-86
2022/03/04 01:34:44;1612916.00;5.38;2857.45;110872.00;0.37;192.33;;;;;8.80;1.00;;;;;;2266417;61;1607;-86
2022/03/04 01:37:18;1242558.00;4.14;2167.36;37768.00;0.13;66.03;;;;;8.60;1.00;;;;;;2266006;61;1720;-86
2022/03/04 01:39:45;1400373.00;4.67;2457.02;36439.00;0.12;63.73;;;;;9.20;1.00;;;;;;2265849;61;1051;-85
2022/03/04 01:42:16;1076511.00;3.59;1868.47;41730.00;0.14;72.88;;;;;9.30;1.00;;;;;;2265902;61;1569;-85
2022/03/04 01:44:47;1064561.00;3.55;1847.16;369.00;0.00;1.26;;;;;9.00;1.00;;;;;;2266208;61;1012;-86
2022/03/04 01:47:28;1171745.00;3.91;2039.22;0.00;0.00;0.62;;;;;9.00;1.00;;;;;;2266263;61;1484;-85
2022/03/04 01:50:10;785031.00;2.62;1355.03;0.00;0.00;0.62;;;;;9.10;1.00;;;;;;2266340;61;1573;-87
2022/03/04 01:55:21;562988.00;1.88;970.35;0.00;0.00;0.62;;;;;9.50;1.00;;;;;;2265791;61;1920;-85
2022/03/04 01:57:57;715056.00;2.38;1233.36;0.00;0.00;0.62;;;;;9.30;1.00;;;;;;2265901;61;1717;-86
2022/03/04 02:00:28;768354.00;2.56;1325.99;0.00;0.00;0.62;;;;;8.20;1.00;;;;;;2266273;61;1679;-85
2022/03/04 02:03:14;880488.00;2.93;1521.88;0.00;0.00;0.62;;;;;7.90;1.00;;;;;;2266632;61;1438;-86
2022/03/04 02:05:51;844543.00;2.82;1458.92;0.00;0.00;0.62;;;;;7.70;1.00;;;;;;2266302;61;1489;-85
2022/03/04 02:08:26;976866.00;3.26;1691.54;82431.00;0.27;143.24;;;;;8.20;1.00;;;;;;2266707;61;1132;-85
2022/03/04 02:10:59;790088.00;2.63;1363.84;0.00;0.00;0.62;;;;;8.50;1.00;;;;;;2266318;61;1497;-85
2022/03/04 02:13:31;1089187.00;3.63;1891.10;139019.00;0.46;240.88;;;;;8.70;1.00;;;;;;2266708;61;1569;-86
2022/03/04 02:16:00;701825.00;2.34;1210.40;97962.00;0.33;170.05;;;;;8.80;1.00;;;;;;2266767;61;2175;-86
2022/03/04 02:18:28;884426.00;2.95;1528.78;63486.00;0.21;110.50;;;;;8.60;1.00;;;;;;2266898;61;1631;-85
2022/03/04 02:21:04;770983.00;2.57;1330.56;82385.00;0.27;143.16;;;;;8.60;1.00;;;;;;2266654;61;1624;-85
2022/03/04 02:23:33;929150.00;3.10;1607.38;89495.00;0.30;155.44;;;;;8.70;1.00;;;;;;2266662;61;1459;-85
2022/03/04 02:26:06;825945.00;2.75;1426.41;98366.00;0.33;170.75;;;;;8.90;1.00;;;;;;2268793;61;1464;-88
2022/03/04 02:28:34;987263.00;3.29;1709.93;95620.00;0.32;166.01;;;;;8.90;1.00;;;;;;2272106;61;1514;-86
2022/03/04 02:31:02;1165178.00;3.88;2027.39;92362.00;0.31;160.39;;;;;8.90;1.00;;;;;;2272016;61;1659;-88
2022/03/04 02:33:30;959453.00;3.20;1660.79;97612.00;0.33;169.45;;;;;9.10;1.00;;;;;;2266903;61;1498;-86
2022/03/04 02:35:59;837199.00;2.79;1446.08;104579.00;0.35;181.48;;;;;9.20;1.00;;;;;;2266026;61;2020;-86
2022/03/04 02:38:27;959605.00;3.20;1661.06;93825.00;0.31;162.91;;;;;8.30;1.00;;;;;;2266391;61;1494;-85
2022/03/04 02:40:56;1183253.00;3.94;2059.97;107519.00;0.36;186.55;;;;;7.40;1.00;;;;;;2266327;61;1505;-84
2022/03/04 02:43:23;1096827.00;3.66;1904.75;92665.00;0.31;160.91;;;;;7.00;1.00;;;;;;2266170;61;1325;-85
2022/03/04 02:45:51;909121.00;3.03;1572.15;101075.00;0.34;175.43;;;;;7.20;1.00;;;;;;2270441;61;1674;-88
2022/03/04 02:48:20;119346080.00;397.82;68860832.00;88007.00;0.29;152.87;;;;;7.30;1.00;;;;;;2272114;61;1501;-86
2022/03/04 02:50:48;882034.00;2.94;1524.59;82101.00;0.27;142.67;;;;;7.40;1.00;;;;;;2266972;61;1136;-84
2022/03/04 02:53:17;1002109.00;3.34;1736.21;96007.00;0.32;166.68;;;;;8.00;1.00;;;;;;2266757;61;1653;-84
2022/03/04 02:55:46;936856.00;3.12;1620.95;95066.00;0.32;165.05;;;;;8.20;1.00;;;;;;2266666;61;2345;-85
2022/03/04 02:58:15;1009521.00;3.37;1749.34;111214.00;0.37;192.92;;;;;8.20;1.00;;;;;;2266400;61;1718;-85
2022/03/04 03:00:50;871239.00;2.90;1505.66;93107.00;0.31;161.67;;;;;8.30;1.00;;;;;;2266731;61;1616;-85
2022/03/04 03:03:19;1490832.00;4.97;2625.88;116764.00;0.39;202.50;;;;;7.90;1.00;;;;;;2266422;61;1492;-85
2022/03/04 03:05:49;1403200.00;4.68;2462.26;142600.00;0.48;247.05;;;;;7.80;1.00;;;;;;2268561;61;1551;-85
2022/03/04 03:08:24;1563778.00;5.21;2763.71;52906.00;0.18;92.21;;;;;8.10;1.00;;;;;;2271159;61;1522;-85
2022/03/04 03:10:55;1301428.00;4.34;2274.72;25715.00;0.09;45.17;;;;;8.10;1.00;;;;;;2272402;61;1774;-84
2022/03/04 06:08:31;573530.00;1.91;988.54;0.00;0.00;0.62;;;;;7.00;1.00;;;;;;2499469;40;3520;31
2022/03/04 06:38:50;383380.00;1.28;661.24;0.00;0.00;0.62;;;;;5.20;1.00;;;;;;2266691;61;916;-85
2022/03/04 06:41:20;180203.00;0.60;311.84;0.00;0.00;0.62;;;;;5.50;1.00;;;;;;2497464;55;4225;31
2022/03/04 10:20:26;624349.00;2.08;1076.28;0.00;0.00;0.62;;;;;6.80;1.00;;;;;;2490123;56;3825;31
2022/03/04 10:35:37;341069.00;1.14;588.51;44967.00;0.15;78.48;;;;;6.70;1.00;;;;;;2490733;56;3690;31
2022/03/04 11:09:00;180734.00;0.60;312.75;0.00;0.00;0.62;;;;;7.50;1.00;;;;;;2491174;40;3684;31
2022/03/04 12:59:30;364254.00;1.21;628.36;34970.00;0.12;61.18;;;;;11.10;1.00;;;;;;2262850;61;932;-89
2022/03/04 13:05:31;71279.00;0.24;123.97;0.00;0.00;0.62;;;;;10.40;1.00;;;;;;2254830;61;1322;-87
2022/03/04 13:55:44;553258.00;1.84;953.58;0.00;0.00;0.62;;;;;9.80;1.00;;;;;;2262226;61;927;-89
2022/03/04 14:00:52;194995.00;0.65;337.31;0.00;0.00;0.62;;;;;9.50;1.00;;;;;;2262597;61;1337;-89
2022/03/04 14:03:23;231666.00;0.77;400.41;0.00;0.00;0.62;;;;;9.60;1.00;;;;;;2388310;56;4087;-82
2022/03/04 14:05:59;579266.00;1.93;998.43;0.00;0.00;0.62;;;;;9.60;1.00;;;;;;2250251;61;1171;-83
2022/03/04 14:08:26;864108.00;2.88;1493.17;43427.00;0.14;75.82;;;;;9.60;1.00;;;;;;2249717;61;1136;-83
2022/03/04 14:10:55;381341.00;1.27;657.73;0.00;0.00;0.62;;;;;9.70;1.00;;;;;;2249822;61;1151;-83
2022/03/04 14:13:24;457445.00;1.52;788.59;0.00;0.00;0.62;;;;;9.70;1.00;;;;;;2250514;61;1285;-83
2022/03/04 14:15:52;473299.00;1.58;815.87;0.00;0.00;0.62;;;;;9.70;1.00;;;;;;2250624;61;1125;-83
2022/03/04 14:18:24;530445.00;1.77;914.26;0.00;0.00;0.62;;;;;9.50;1.00;;;;;;2249068;61;1954;-83
2022/03/04 14:20:51;585610.00;1.95;1009.38;0.00;0.00;0.62;;;;;9.30;1.00;;;;;;2249237;61;1081;-82
2022/03/04 14:23:19;549173.00;1.83;946.53;0.00;0.00;0.62;;;;;9.40;1.00;;;;;;2249078;61;1314;-82
2022/03/04 14:25:46;451883.00;1.51;779.02;0.00;0.00;0.62;;;;;9.40;1.00;;;;;;2249068;61;1227;-83
2022/03/04 14:28:16;580623.00;1.94;1000.77;0.00;0.00;0.62;;;;;9.50;1.00;;;;;;2249293;61;1244;-82
2022/03/04 14:30:46;635731.00;2.12;1095.96;0.00;0.00;0.62;;;;;9.60;1.00;;;;;;2249997;61;1142;-82
2022/03/04 14:33:14;610619.00;2.04;1052.56;0.00;0.00;0.62;;;;;9.50;1.00;;;;;;2250128;61;2044;-82
2022/03/04 14:35:44;581812.00;1.94;1002.83;0.00;0.00;0.62;;;;;9.30;1.00;;;;;;2251467;61;1211;-83
2022/03/04 14:38:11;579600.00;1.93;999.01;12526.00;0.04;22.33;;;;;9.40;1.00;;;;;;2249446;61;1956;-82
2022/03/04 14:40:40;378647.00;1.26;653.10;0.00;0.00;0.62;;;;;9.60;1.00;;;;;;2249560;61;1229;-82
2022/03/04 14:43:07;417892.00;1.39;720.57;0.00;0.00;0.62;;;;;9.30;1.00;;;;;;2249739;61;1360;-83
2022/03/04 14:45:37;468511.00;1.56;807.63;0.00;0.00;0.62;;;;;9.40;1.00;;;;;;2249694;61;1011;-83
2022/03/04 14:48:05;577227.00;1.92;994.91;0.00;0.00;0.62;;;;;9.40;1.00;;;;;;2249542;61;1111;-83
2022/03/04 14:50:36;443485.00;1.48;764.58;0.00;0.00;0.62;;;;;9.40;1.00;;;;;;2250068;61;1133;-82
2022/03/04 14:53:04;632227.00;2.11;1089.90;28212.00;0.09;49.49;;;;;9.50;1.00;;;;;;2250170;61;1453;-83
2022/03/04 14:55:32;455585.00;1.52;785.39;0.00;0.00;0.62;;;;;9.50;1.00;;;;;;2251013;61;1227;-82
2022/03/04 14:58:01;596487.00;1.99;1028.15;0.00;0.00;0.62;;;;;9.80;1.00;;;;;;2250308;61;2011;-82
2022/03/04 15:00:29;613439.00;2.04;1057.43;0.00;0.00;0.62;;;;;9.80;1.00;;;;;;2250212;61;1094;-82
2022/03/04 15:02:58;743153.00;2.48;1282.15;26984.00;0.09;47.36;;;;;9.40;1.00;;;;;;2250064;61;1383;-81
2022/03/04 15:05:25;119158144.00;397.19;68535752.00;0.00;0.00;0.62;;;;;9.40;1.00;;;;;;2251516;61;1151;-80
2022/03/04 15:07:54;895395.00;2.98;1548.03;0.00;0.00;0.62;;;;;9.40;1.00;;;;;;2252151;61;1199;-82
2022/03/04 15:10:22;480840.00;1.60;828.84;0.00;0.00;0.62;;;;;9.70;1.00;;;;;;2250921;61;1159;-82
2022/03/04 15:12:51;467336.00;1.56;805.61;0.00;0.00;0.62;;;;;9.60;1.00;;;;;;2251291;61;1270;-82
2022/03/04 15:15:18;422309.00;1.41;728.16;0.00;0.00;0.62;;;;;9.70;1.00;;;;;;2251509;61;1151;-82
2022/03/04 15:17:46;407983.00;1.36;703.53;0.00;0.00;0.62;;;;;9.90;1.00;;;;;;2251044;61;2193;-83
2022/03/04 15:20:15;567647.00;1.89;978.39;0.00;0.00;0.62;;;;;9.80;1.00;;;;;;2251580;61;1100;-82
2022/03/04 15:22:45;483753.00;1.61;833.86;27151.00;0.09;47.65;;;;;9.60;1.00;;;;;;2252085;61;1262;-82
2022/03/04 15:25:12;463049.00;1.54;798.23;0.00;0.00;0.62;;;;;9.70;1.00;;;;;;2253005;61;1117;-82
2022/03/04 15:27:39;567412.00;1.89;977.98;0.00;0.00;0.62;;;;;9.50;1.00;;;;;;2251239;61;1125;-82
2022/03/04 15:30:07;624364.00;2.08;1076.31;0.00;0.00;0.62;;;;;9.40;1.00;;;;;;2250651;61;1144;-81
2022/03/04 15:32:35;468894.00;1.56;808.29;0.00;0.00;0.62;;;;;9.30;1.00;;;;;;2251829;61;1341;-82
2022/03/04 15:35:02;389840.00;1.30;672.34;0.00;0.00;0.62;;;;;9.10;1.00;;;;;;2251126;61;1668;-82
2022/03/04 15:37:30;425953.00;1.42;734.43;0.00;0.00;0.62;;;;;9.40;1.00;;;;;;2250623;61;2021;-83
2022/03/04 15:39:57;605387.00;2.02;1043.52;0.00;0.00;0.62;;;;;9.70;1.00;;;;;;2250717;61;2129;-82
2022/03/04 15:42:24;117322696.00;391.08;65414484.00;0.00;0.00;0.62;;;;;9.40;1.00;;;;;;2250863;61;1257;-80
2022/03/04 15:44:55;574753.00;1.92;990.65;0.00;0.00;0.62;;;;;9.00;1.00;;;;;;2250913;61;1187;-83
2022/03/04 15:47:22;496997.00;1.66;856.65;0.00;0.00;0.62;;;;;8.90;1.00;;;;;;2250772;61;1867;-82
2022/03/04 15:49:49;492692.00;1.64;849.24;0.00;0.00;0.62;;;;;8.70;1.00;;;;;;2250562;61;1235;-83
2022/03/04 15:52:16;546218.00;1.82;941.44;0.00;0.00;0.62;;;;;8.80;1.00;;;;;;2250389;61;1327;-82
2022/03/04 15:54:45;497205.00;1.66;857.01;0.00;0.00;0.62;;;;;8.60;1.00;;;;;;2250980;61;1146;-82
2022/03/04 15:57:12;568865.00;1.90;980.49;0.00;0.00;0.62;;;;;8.60;1.00;;;;;;2250708;61;1943;-83
2022/03/04 15:59:39;513579.00;1.71;885.21;0.00;0.00;0.62;;;;;8.70;1.00;;;;;;2250805;61;1059;-83
2022/03/04 16:02:06;535229.00;1.78;922.50;0.00;0.00;0.62;;;;;8.80;1.00;;;;;;2250555;61;1341;-82
2022/03/04 16:04:33;478774.00;1.60;825.29;0.00;0.00;0.62;;;;;8.80;1.00;;;;;;2250942;61;1196;-82
2022/03/04 16:07:00;560760.00;1.87;966.51;0.00;0.00;0.62;;;;;8.70;1.00;;;;;;2250299;61;1124;-82
2022/03/04 16:09:26;416534.00;1.39;718.23;0.00;0.00;0.62;;;;;8.50;1.00;;;;;;2250568;61;1063;-82
2022/03/04 16:11:55;368974.00;1.23;636.47;0.00;0.00;0.62;;;;;8.60;1.00;;;;;;2250695;61;1136;-80
2022/03/04 16:14:22;707969.00;2.36;1221.06;0.00;0.00;0.62;;;;;8.60;1.00;;;;;;2250457;61;1376;-82
2022/03/04 16:16:49;438351.00;1.46;755.75;0.00;0.00;0.62;;;;;8.60;1.00;;;;;;2250631;61;1947;-82
2022/03/04 16:19:16;501418.00;1.67;864.27;0.00;0.00;0.62;;;;;8.90;1.00;;;;;;2250024;61;1180;-83
2022/03/04 16:21:43;431798.00;1.44;744.48;0.00;0.00;0.62;;;;;8.90;1.00;;;;;;2250428;61;1175;-82
2022/03/04 16:24:10;523776.00;1.75;902.77;21643.00;0.07;38.12;;;;;9.00;1.00;;;;;;2250509;61;1267;-82
2022/03/04 16:26:37;364690.00;1.22;629.11;0.00;0.00;0.62;;;;;8.70;1.00;;;;;;2250534;61;1083;-82
2022/03/04 16:29:05;478206.00;1.59;824.31;0.00;0.00;0.62;;;;;8.60;1.00;;;;;;2250419;61;1115;-82
2022/03/04 16:31:32;741962.00;2.47;1280.08;45986.00;0.15;80.24;;;;;8.70;1.00;;;;;;2250612;61;1080;-83
2022/03/04 16:33:59;644075.00;2.15;1110.39;0.00;0.00;0.62;;;;;9.00;1.00;;;;;;2250587;61;1329;-82
2022/03/04 16:36:26;478203.00;1.59;824.31;0.00;0.00;0.62;;;;;9.00;1.00;;;;;;2250660;61;1095;-83
2022/03/04 16:38:53;574039.00;1.91;989.41;0.00;0.00;0.62;;;;;9.00;1.00;;;;;;2250718;61;2038;-82
2022/03/04 16:41:20;404001.00;1.35;696.68;0.00;0.00;0.62;;;;;8.80;1.00;;;;;;2251151;61;1595;-82
2022/03/04 16:43:47;427351.00;1.42;736.83;0.00;0.00;0.62;;;;;8.90;1.00;;;;;;2256289;61;1330;-80
2022/03/04 16:46:18;863998.00;2.88;1492.97;0.00;0.00;0.62;;;;;8.70;1.00;;;;;;2257939;61;1126;-82
2022/03/04 16:48:47;444633.00;1.48;766.55;0.00;0.00;0.62;;;;;8.80;1.00;;;;;;2253827;61;1110;-82
2022/03/04 16:51:14;495075.00;1.65;853.34;0.00;0.00;0.62;;;;;8.70;1.00;;;;;;2250289;61;1244;-82
2022/03/04 16:53:40;443923.00;1.48;765.33;0.00;0.00;0.62;;;;;8.70;1.00;;;;;;2250204;61;1327;-82
2022/03/04 16:56:08;423663.00;1.41;730.49;0.00;0.00;0.62;;;;;8.90;1.00;;;;;;2250558;61;1156;-82
2022/03/04 16:58:35;732223.00;2.44;1263.16;73700.00;0.25;128.15;;;;;8.80;1.00;;;;;;2250124;61;2022;-82
2022/03/04 17:01:03;529996.00;1.77;913.48;0.00;0.00;0.62;;;;;8.60;1.00;;;;;;2250195;61;1235;-82
2022/03/04 17:03:31;732426.00;2.44;1263.52;57510.00;0.19;100.17;;;;;8.40;1.00;;;;;;2250294;61;1333;-82
2022/03/04 17:05:58;822113.00;2.74;1419.72;158667.00;0.53;274.74;;;;;8.20;1.00;;;;;;2250550;61;1166;-82
2022/03/04 17:08:25;470162.00;1.57;810.47;0.00;0.00;0.62;;;;;8.00;1.00;;;;;;2250219;61;1187;-81
2022/03/04 17:10:52;470023.00;1.57;810.23;0.00;0.00;0.62;;;;;7.80;1.00;;;;;;2250674;61;1164;-82
2022/03/04 17:13:19;622136.00;2.07;1072.46;0.00;0.00;0.62;;;;;7.60;1.00;;;;;;2249949;61;1222;-81
2022/03/04 17:15:48;530990.00;1.77;915.20;0.00;0.00;0.62;;;;;7.60;1.00;;;;;;2250947;61;2200;-81
2022/03/04 17:18:15;501801.00;1.67;864.92;0.00;0.00;0.62;;;;;7.40;1.00;;;;;;2251383;61;2017;-82
2022/03/04 17:20:44;619584.00;2.07;1068.05;0.00;0.00;0.62;;;;;7.30;1.00;;;;;;2256117;61;1143;-79
2022/03/04 17:23:12;585835.00;1.95;1009.77;0.00;0.00;0.62;;;;;7.40;1.00;;;;;;2259944;61;1328;-80
2022/03/04 17:25:39;745800.00;2.49;1286.76;0.00;0.00;0.62;;;;;7.60;1.00;;;;;;2254848;61;1137;-81
2022/03/04 17:28:08;748503.00;2.50;1291.45;0.00;0.00;0.62;;;;;7.50;1.00;;;;;;2250653;61;1168;-81
2022/03/04 17:30:35;501484.00;1.67;864.38;0.00;0.00;0.62;;;;;7.40;1.00;;;;;;2250944;61;1727;-82
2022/03/04 17:33:03;411097.00;1.37;708.88;0.00;0.00;0.62;;;;;7.40;1.00;;;;;;2250625;61;1213;-83
2022/03/04 17:35:30;503631.00;1.68;868.08;0.00;0.00;0.62;;;;;7.40;1.00;;;;;;2250208;61;1125;-83
2022/03/04 17:37:58;458520.00;1.53;790.44;0.00;0.00;0.62;;;;;7.40;1.00;;;;;;2250691;61;1928;-81
2022/03/04 17:40:25;365777.00;1.22;630.98;0.00;0.00;0.62;;;;;7.60;1.00;;;;;;2251089;61;1220;-82
2022/03/04 17:42:52;424140.00;1.41;731.31;0.00;0.00;0.62;;;;;7.50;1.00;;;;;;2250692;61;1274;-83
2022/03/04 17:45:19;568000.00;1.89;979.00;0.00;0.00;0.62;;;;;7.60;1.00;;;;;;2250693;61;1113;-82
2022/03/04 17:47:46;681179.00;2.27;1174.62;8387.00;0.03;15.15;;;;;7.80;1.00;;;;;;2250762;61;1146;-83
2022/03/04 17:50:13;399962.00;1.33;689.74;0.00;0.00;0.62;;;;;7.70;1.00;;;;;;2250706;61;1136;-82
2022/03/04 17:52:39;472728.00;1.58;814.88;0.00;0.00;0.62;;;;;7.90;1.00;;;;;;2251115;61;1355;-82
2022/03/04 17:55:09;500653.00;1.67;862.95;31432.00;0.10;55.06;;;;;8.10;1.00;;;;;;2251156;61;1064;-83
2022/03/04 17:57:36;427622.00;1.43;737.30;0.00;0.00;0.62;;;;;8.60;1.00;;;;;;2251285;61;1941;-82
2022/03/04 18:00:03;402485.00;1.34;694.08;0.00;0.00;0.62;;;;;8.90;1.00;;;;;;2251076;61;1129;-82
2022/03/04 18:02:30;365531.00;1.22;630.56;0.00;0.00;0.62;;;;;9.10;1.00;;;;;;2250701;61;1363;-83
2022/03/04 18:04:57;502010.00;1.67;865.28;58754.00;0.20;102.32;;;;;9.30;1.00;;;;;;2250578;61;1182;-83
2022/03/04 18:07:24;530817.00;1.77;914.90;0.00;0.00;0.62;;;;;9.20;1.00;;;;;;2250914;61;1111;-82
2022/03/04 18:09:51;462430.00;1.54;797.17;0.00;0.00;0.62;;;;;9.00;1.00;;;;;;2250626;61;1131;-83
2022/03/04 18:12:19;489416.00;1.63;843.60;0.00;0.00;0.62;;;;;9.10;1.00;;;;;;2250191;61;1279;-83
2022/03/04 18:14:49;366966.00;1.22;633.02;0.00;0.00;0.62;;;;;9.40;1.00;;;;;;2250417;61;1147;-82
2022/03/04 18:17:16;405107.00;1.35;698.58;0.00;0.00;0.62;;;;;9.70;1.00;;;;;;2250647;61;1136;-83
2022/03/04 18:19:43;330749.00;1.10;570.77;0.00;0.00;0.62;;;;;10.00;1.00;;;;;;2250787;61;2013;-84
2022/03/04 18:22:10;519952.00;1.73;896.18;11738.00;0.04;20.96;;;;;10.10;1.00;;;;;;2250758;61;1361;-82
2022/03/04 18:24:38;506259.00;1.69;872.60;0.00;0.00;0.62;;;;;9.80;1.00;;;;;;2250669;61;1104;-83
2022/03/04 18:27:05;440141.00;1.47;758.83;0.00;0.00;0.62;;;;;9.40;1.00;;;;;;2251043;61;1126;-82
2022/03/04 18:29:34;548658.00;1.83;945.65;0.00;0.00;0.62;;;;;8.90;1.00;;;;;;2250304;61;1126;-83
2022/03/04 18:32:01;414960.00;1.38;715.52;0.00;0.00;0.62;;;;;8.70;1.00;;;;;;2250965;61;1097;-81
2022/03/04 18:34:27;433234.00;1.44;746.95;0.00;0.00;0.62;;;;;8.80;1.00;;;;;;2251005;61;1436;-82
2022/03/04 18:36:54;576291.00;1.92;993.30;0.00;0.00;0.62;;;;;9.20;1.00;;;;;;2250763;61;1239;-81
2022/03/04 18:42:06;398496.00;1.33;687.22;0.00;0.00;0.62;;;;;9.40;1.00;;;;;;2250554;61;1370;-82
2022/03/04 18:44:34;393310.00;1.31;678.30;51929.00;0.17;90.52;;;;;9.30;1.00;;;;;;2250862;61;1127;-84
2022/03/04 18:47:01;343822.00;1.15;593.24;0.00;0.00;0.62;;;;;9.40;1.00;;;;;;2251098;61;1091;-83
2022/03/04 18:49:28;345205.00;1.15;595.62;0.00;0.00;0.62;;;;;9.30;1.00;;;;;;2250499;61;1126;-83
2022/03/04 18:51:55;522496.00;1.74;900.56;0.00;0.00;0.62;;;;;9.20;1.00;;;;;;2251214;61;1465;-83
2022/03/04 18:54:22;426364.00;1.42;735.13;0.00;0.00;0.62;;;;;9.50;1.00;;;;;;2253351;61;1362;-82
2022/03/04 18:56:49;259219.00;0.86;447.81;0.00;0.00;0.62;;;;;9.80;1.00;;;;;;2254853;61;1158;-83
2022/03/04 18:59:18;298076.00;0.99;514.61;0.00;0.00;0.62;;;;;10.20;1.00;;;;;;2253080;61;1939;-83
2022/03/04 19:01:48;346482.00;1.15;597.81;0.00;0.00;0.62;;;;;10.50;1.00;;;;;;2253365;61;1223;-82
2022/03/04 19:04:17;342617.00;1.14;591.17;0.00;0.00;0.62;;;;;10.80;1.00;;;;;;2253346;61;1789;-82
2022/03/04 19:06:46;327767.00;1.09;565.65;0.00;0.00;0.62;;;;;10.70;1.00;;;;;;2253480;61;1153;-82
2022/03/04 19:09:15;465204.00;1.55;801.94;0.00;0.00;0.62;;;;;10.10;1.00;;;;;;2252550;61;1201;-83
2022/03/04 19:11:43;288770.00;0.96;498.61;0.00;0.00;0.62;;;;;9.40;1.00;;;;;;2252215;61;1111;-83
2022/03/04 19:14:11;494187.00;1.65;851.82;0.00;0.00;0.62;;;;;8.80;1.00;;;;;;2251766;61;1348;-82
2022/03/04 19:16:38;524719.00;1.75;904.39;0.00;0.00;0.62;;;;;8.80;1.00;;;;;;2251237;61;1139;-82
2022/03/04 19:19:09;660166.00;2.20;1138.23;0.00;0.00;0.62;;;;;8.50;1.00;;;;;;2251533;61;1943;-80
2022/03/04 19:21:36;616226.00;2.05;1062.25;17082.00;0.06;30.22;;;;;8.00;1.00;;;;;;2250953;61;1088;-82
2022/03/04 19:24:05;524242.00;1.75;903.57;0.00;0.00;0.62;;;;;7.50;1.00;;;;;;2250702;61;1348;-82
2022/03/04 19:26:32;612472.00;2.04;1055.76;0.00;0.00;0.62;;;;;7.10;1.00;;;;;;2250759;61;1141;-83
2022/03/04 19:28:59;484480.00;1.61;835.11;0.00;0.00;0.62;;;;;6.90;1.00;;;;;;2250963;61;1211;-81
2022/03/04 19:31:28;489383.00;1.63;843.55;15740.00;0.05;27.89;;;;;6.70;1.00;;;;;;2250889;61;1192;-82
2022/03/04 19:33:55;339953.00;1.13;586.59;0.00;0.00;0.62;;;;;7.10;1.00;;;;;;2250740;61;1344;-81
2022/03/04 19:36:24;387097.00;1.29;667.62;0.00;0.00;0.62;;;;;7.80;1.00;;;;;;2251994;61;1265;-83
2022/03/04 19:38:51;372881.00;1.24;643.19;0.00;0.00;0.62;;;;;8.50;1.00;;;;;;2252322;61;2012;-80
2022/03/04 19:41:18;506057.00;1.69;872.25;0.00;0.00;0.62;;;;;9.00;1.00;;;;;;2253296;61;1178;-81
2022/03/04 19:43:45;519892.00;1.73;896.08;0.00;0.00;0.62;;;;;9.50;1.00;;;;;;2253050;61;1278;-81
2022/03/04 19:46:13;319928.00;1.07;552.17;0.00;0.00;0.62;;;;;9.90;1.00;;;;;;2253793;61;1132;-83
2022/03/04 19:48:40;333680.00;1.11;575.81;0.00;0.00;0.62;;;;;10.10;1.00;;;;;;2255249;61;1101;-80
2022/03/04 19:51:07;431032.00;1.44;743.16;0.00;0.00;0.62;;;;;10.40;1.00;;;;;;2252648;61;1144;-82
2022/03/04 19:53:36;299652.00;1.00;517.32;0.00;0.00;0.62;;;;;10.40;1.00;;;;;;2252454;61;1320;-83
2022/03/04 19:56:03;297791.00;0.99;514.12;0.00;0.00;0.62;;;;;9.60;1.00;;;;;;2252995;61;1080;-84
2022/03/04 19:58:30;484934.00;1.62;835.89;41607.00;0.14;72.67;;;;;9.90;1.00;;;;;;2252815;61;2002;-83
2022/03/04 20:00:57;526247.00;1.75;907.03;94259.00;0.31;163.66;;;;;10.10;1.00;;;;;;2253227;61;1130;-82
2022/03/04 20:03:24;400188.00;1.33;690.13;0.00;0.00;0.62;;;;;9.70;1.00;;;;;;2252832;61;1419;-84
2022/03/04 20:05:51;395180.00;1.32;681.52;0.00;0.00;0.62;;;;;9.40;1.00;;;;;;2252795;61;1180;-83
2022/03/04 20:08:18;483153.00;1.61;832.82;0.00;0.00;0.62;;;;;9.70;1.00;;;;;;2253061;61;1168;-83
2022/03/04 20:10:46;466118.00;1.55;803.51;0.00;0.00;0.62;;;;;9.80;1.00;;;;;;2253146;61;1101;-84
2022/03/04 20:13:13;365643.00;1.22;630.75;0.00;0.00;0.62;;;;;10.00;1.00;;;;;;2257226;61;1373;-84
2022/03/04 20:15:40;368745.00;1.23;636.08;0.00;0.00;0.62;;;;;10.40;1.00;;;;;;2253061;61;1154;-83
2022/03/04 20:18:07;467738.00;1.56;806.30;0.00;0.00;0.62;;;;;10.60;1.00;;;;;;2252646;61;2026;-84
2022/03/04 20:20:34;361857.00;1.21;624.24;0.00;0.00;0.62;;;;;10.40;1.00;;;;;;2254468;61;1350;-84
2022/03/04 20:23:01;455934.00;1.52;785.99;0.00;0.00;0.62;;;;;10.10;1.00;;;;;;2254310;61;1262;-83
2022/03/04 20:25:28;455755.00;1.52;785.68;0.00;0.00;0.62;;;;;10.00;1.00;;;;;;2254592;61;1111;-84
2022/03/04 20:27:57;742425.00;2.47;1280.89;12691.00;0.04;22.61;;;;;10.00;1.00;;;;;;2259968;61;1153;-83
2022/03/04 20:30:24;676592.00;2.26;1166.67;25549.00;0.09;44.88;;;;;10.00;1.00;;;;;;2260131;61;1155;-84
2022/03/04 20:32:51;772411.00;2.57;1333.05;0.00;0.00;0.62;;;;;10.00;1.00;;;;;;2256996;61;1325;-84
2022/03/04 20:35:18;757181.00;2.52;1306.55;29695.00;0.10;52.06;;;;;10.20;1.00;;;;;;2253652;61;1135;-84
2022/03/04 20:37:45;915635.00;3.05;1583.60;13581.00;0.05;24.15;;;;;9.90;1.00;;;;;;2253266;61;1123;-85
2022/03/04 20:40:12;953523.00;3.18;1650.32;75166.00;0.25;130.69;;;;;8.80;1.00;;;;;;2258421;61;2041;-83